createdAt,value
2023-03-01T00:00:16.081Z,4.97
2023-03-01T00:05:18.421Z,5.47
2023-03-01T00:10:20.609Z,5.70
2023-03-01T00:15:22.895Z,5.93
2023-03-01T00:20:25.232Z,5.28
2023-03-01T00:25:27.432Z,4.00
2023-03-01T00:30:29.666Z,6.32
2023-03-01T00:35:33.306Z,5.07
2023-03-01T00:40:36.506Z,4.63
2023-03-01T00:45:38.773Z,5.65
2023-03-01T00:50:41.013Z,4.93
2023-03-01T00:55:43.949Z,5.65
2023-03-01T01:00:46.143Z,6.95
2023-03-01T01:05:48.402Z,5.80
2023-03-01T01:10:50.652Z,7.10
2023-03-01T01:15:52.856Z,7.40
2023-03-01T01:20:55.078Z,7.63
2023-03-01T01:25:57.514Z,6.45
2023-03-01T01:30:59.860Z,6.65
2023-03-01T01:36:02.064Z,7.78
2023-03-01T01:41:04.844Z,7.70
2023-03-01T01:46:25.971Z,8.80
2023-03-01T01:51:41.401Z,6.47
2023-03-01T01:56:45.546Z,7.07
2023-03-01T02:01:47.711Z,7.60
2023-03-01T02:06:53.165Z,6.05
2023-03-01T02:11:55.349Z,5.43
2023-03-01T02:16:57.599Z,4.75
2023-03-01T02:22:07.591Z,3.58
2023-03-01T02:27:11.038Z,4.90
2023-03-01T02:32:13.639Z,5.05
2023-03-01T02:37:21.806Z,6.10
2023-03-01T02:42:27.127Z,6.72
2023-03-01T02:47:29.907Z,4.88
2023-03-01T02:52:37.444Z,6.20
2023-03-01T02:57:41.564Z,4.25
2023-03-01T03:02:43.752Z,5.82
2023-03-01T03:07:56.723Z,5.22
2023-03-01T03:13:00.785Z,3.92
2023-03-01T03:18:04.247Z,5.90
2023-03-01T03:23:06.406Z,5.45
2023-03-01T03:28:11.689Z,5.75
2023-03-01T03:33:14.070Z,4.40
2023-03-01T03:38:18.151Z,4.82
2023-03-01T03:43:21.484Z,6.10
2023-03-01T03:48:24.163Z,5.78
2023-03-01T03:53:27.167Z,4.78
2023-03-01T03:58:29.286Z,3.38
2023-03-01T04:03:32.025Z,4.05
2023-03-01T04:08:34.477Z,4.95
2023-03-01T04:13:37.613Z,4.30
2023-03-01T04:18:39.677Z,5.07
2023-03-01T04:23:45.138Z,4.10
2023-03-01T04:28:49.343Z,3.20
2023-03-01T04:33:53.152Z,6.45
2023-03-01T04:38:55.556Z,5.82
2023-03-01T04:43:57.755Z,3.70
2023-03-01T04:48:59.846Z,6.03
2023-03-01T04:54:02.015Z,4.85
2023-03-01T04:59:06.931Z,6.05
2023-03-01T05:04:14.214Z,5.22
2023-03-01T05:09:16.744Z,6.32
2023-03-01T05:14:18.902Z,6.07
2023-03-01T05:19:24.000Z,6.07
2023-03-01T05:24:26.197Z,6.15
2023-03-01T05:29:29.740Z,6.15
2023-03-01T05:34:33.341Z,6.43
2023-03-01T05:39:35.923Z,6.03
2023-03-01T05:44:38.262Z,6.40
2023-03-01T05:49:40.490Z,7.32
2023-03-01T05:54:43.934Z,6.40
2023-03-01T05:59:46.931Z,6.05
2023-03-01T06:04:49.228Z,7.40
2023-03-01T06:09:51.495Z,6.95
2023-03-01T06:14:53.648Z,6.00
2023-03-01T06:19:55.765Z,7.40
2023-03-01T06:24:57.917Z,7.43
2023-03-01T06:30:00.337Z,8.82
2023-03-01T06:35:02.569Z,7.07
2023-03-01T06:40:09.366Z,7.32
2023-03-01T06:45:12.077Z,8.20
2023-03-01T06:50:14.903Z,6.47
2023-03-01T06:55:17.080Z,6.28
2023-03-01T07:00:19.380Z,6.32
2023-03-01T07:05:21.873Z,7.15
2023-03-01T07:10:24.103Z,5.88
2023-03-01T07:15:27.402Z,6.05
2023-03-01T07:20:31.405Z,6.80
2023-03-01T07:25:33.747Z,7.68
2023-03-01T07:30:35.882Z,7.57
2023-03-01T07:35:38.073Z,6.93
2023-03-01T07:40:40.332Z,7.07
2023-03-01T07:45:42.514Z,7.18
2023-03-01T07:50:44.716Z,7.28
2023-03-01T07:55:46.951Z,8.13
2023-03-01T08:00:49.112Z,6.35
2023-03-01T08:05:52.007Z,4.55
2023-03-01T08:10:54.201Z,7.63
2023-03-01T08:16:01.636Z,6.25
2023-03-01T08:21:05.224Z,6.05
2023-03-01T08:26:11.864Z,5.38
2023-03-01T08:31:17.782Z,6.22
2023-03-01T08:36:20.932Z,5.80
2023-03-01T08:41:23.207Z,4.70
2023-03-01T08:46:52.677Z,5.32
2023-03-01T08:51:55.660Z,5.90
2023-03-01T08:57:00.258Z,5.30
2023-03-01T09:02:02.454Z,6.13
2023-03-01T09:07:04.768Z,5.07
2023-03-01T09:12:07.052Z,7.30
2023-03-01T09:17:09.239Z,6.80
2023-03-01T09:22:11.465Z,4.07
2023-03-01T09:27:15.275Z,5.25
2023-03-01T09:32:17.541Z,5.15
2023-03-01T09:37:19.685Z,5.60
2023-03-01T09:42:21.988Z,6.30
2023-03-01T09:47:29.224Z,4.93
2023-03-01T09:52:31.403Z,5.78
2023-03-01T09:57:54.626Z,5.38
2023-03-01T10:03:14.881Z,5.55
2023-03-01T10:08:30.623Z,5.20
2023-03-01T10:13:47.033Z,6.53
2023-03-01T10:18:53.271Z,5.68
2023-03-01T10:24:09.903Z,5.30
2023-03-01T10:29:15.949Z,6.85
2023-03-01T10:34:24.418Z,6.20
2023-03-01T10:39:27.055Z,5.95
2023-03-01T10:44:44.769Z,6.47
2023-03-01T10:50:12.874Z,5.22
2023-03-01T10:55:18.061Z,6.97
2023-03-01T11:00:23.606Z,6.40
2023-03-01T11:05:27.079Z,6.03
2023-03-01T11:10:30.619Z,7.15
2023-03-01T11:15:32.785Z,7.28
2023-03-01T11:20:38.862Z,6.03
2023-03-01T11:25:43.231Z,6.32
2023-03-01T11:31:05.477Z,6.75
2023-03-01T11:36:12.106Z,6.93
2023-03-01T11:41:19.256Z,7.45
2023-03-01T11:46:34.028Z,6.22
2023-03-01T11:51:57.098Z,6.97
2023-03-01T11:57:02.689Z,7.30
2023-03-01T12:02:34.094Z,6.60
2023-03-01T12:07:44.737Z,7.32
2023-03-01T12:13:15.155Z,7.03
2023-03-01T12:18:36.089Z,7.85
2023-03-01T12:23:38.298Z,7.50
2023-03-01T12:28:53.408Z,7.38
2023-03-01T12:34:03.048Z,6.15
2023-03-01T12:39:05.244Z,7.32
2023-03-01T12:44:16.481Z,5.50
2023-03-01T12:49:41.364Z,8.68
2023-03-01T12:54:43.784Z,7.32
2023-03-01T13:00:09.030Z,7.47
2023-03-01T13:05:17.056Z,7.05
2023-03-01T13:10:19.675Z,8.38
2023-03-01T13:15:24.955Z,8.23
2023-03-01T13:20:31.257Z,7.53
2023-03-01T13:25:42.095Z,8.90
2023-03-01T13:30:45.823Z,7.43
2023-03-01T13:35:48.451Z,8.80
2023-03-01T13:40:50.632Z,8.88
2023-03-01T13:45:53.263Z,8.80
2023-03-01T13:51:03.986Z,8.50
2023-03-01T13:56:18.224Z,7.03
2023-03-01T14:01:28.641Z,7.97
2023-03-01T14:06:32.633Z,6.90
2023-03-01T14:11:35.082Z,8.55
2023-03-01T14:16:55.926Z,8.25
2023-03-01T14:22:05.148Z,8.15
2023-03-01T14:27:12.334Z,6.90
2023-03-01T14:32:14.548Z,7.97
2023-03-01T14:37:27.448Z,7.80
2023-03-01T14:42:32.083Z,8.32
2023-03-01T14:47:35.365Z,6.43
2023-03-01T14:52:42.601Z,7.13
2023-03-01T14:57:45.726Z,7.47
2023-03-01T15:02:52.128Z,6.43
2023-03-01T15:07:54.634Z,8.18
2023-03-01T15:12:57.213Z,7.60
2023-03-01T15:18:08.089Z,7.00
2023-03-01T15:23:36.473Z,7.03
2023-03-01T15:28:43.063Z,8.43
2023-03-01T15:33:48.575Z,6.13
2023-03-01T15:38:54.408Z,6.70
2023-03-01T15:43:56.987Z,6.57
2023-03-01T15:49:00.474Z,6.55
2023-03-01T15:54:05.128Z,7.03
2023-03-01T15:59:11.474Z,7.50
2023-03-01T16:04:17.574Z,6.28
2023-03-01T16:09:19.720Z,8.27
2023-03-01T16:14:22.240Z,8.27
2023-03-01T16:19:24.496Z,7.53
2023-03-01T16:24:27.291Z,8.60
2023-03-01T16:29:30.419Z,7.90
2023-03-01T16:34:32.990Z,7.80
2023-03-01T16:39:35.175Z,3.17
2023-03-01T16:44:37.393Z,0.98
2023-03-01T16:49:39.529Z,0.93
2023-03-01T16:54:43.051Z,1.00
2023-03-01T16:59:45.354Z,0.95
2023-03-01T17:04:55.016Z,1.25
2023-03-01T17:09:57.210Z,1.00
2023-03-01T17:14:59.376Z,1.05
2023-03-01T17:20:04.446Z,1.50
2023-03-01T17:25:08.722Z,0.73
2023-03-01T17:30:11.996Z,1.00
2023-03-01T17:35:14.215Z,0.90
2023-03-01T17:40:16.495Z,1.20
2023-03-01T17:45:18.932Z,0.80
2023-03-01T17:50:21.132Z,0.75
2023-03-01T17:55:23.388Z,1.05
2023-03-01T18:00:25.760Z,1.00
2023-03-01T18:05:28.499Z,0.93
2023-03-01T18:10:31.550Z,1.13
2023-03-01T18:15:33.974Z,1.55
2023-03-01T18:20:36.235Z,0.93
2023-03-01T18:25:40.539Z,1.05
2023-03-01T18:30:42.704Z,1.30
2023-03-01T18:35:44.982Z,1.40
2023-03-01T18:40:47.479Z,1.52
2023-03-01T18:45:49.687Z,1.02
2023-03-01T18:50:52.142Z,1.52
2023-03-01T18:55:59.503Z,1.25
2023-03-01T19:01:04.472Z,0.98
2023-03-01T19:06:06.638Z,1.55
2023-03-01T19:11:09.745Z,2.00
2023-03-01T19:16:13.500Z,1.88
2023-03-01T19:21:16.424Z,2.15
2023-03-01T19:26:20.298Z,2.17
2023-03-01T19:31:26.988Z,2.15
2023-03-01T19:36:35.319Z,2.00
2023-03-01T19:41:37.548Z,2.25
2023-03-01T19:46:39.900Z,2.42
2023-03-01T19:51:42.130Z,1.80
2023-03-01T19:56:44.299Z,2.17
2023-03-01T20:01:47.150Z,2.75
2023-03-01T20:06:49.452Z,1.98
2023-03-01T20:11:51.905Z,1.25
2023-03-01T20:16:54.105Z,1.90
2023-03-01T20:21:56.290Z,2.10
2023-03-01T20:26:59.119Z,2.00
2023-03-01T20:32:01.466Z,1.80
2023-03-01T20:37:03.874Z,2.05
2023-03-01T20:42:06.347Z,1.20
2023-03-01T20:47:08.660Z,1.65
2023-03-01T20:52:11.334Z,2.38
2023-03-01T20:57:13.495Z,1.80
2023-03-01T21:02:15.821Z,1.75
2023-03-01T21:07:17.969Z,2.08
2023-03-01T21:12:20.566Z,1.65
2023-03-01T21:17:22.704Z,1.50
2023-03-01T21:22:24.955Z,1.58
2023-03-01T21:27:27.157Z,1.73
2023-03-01T21:32:29.404Z,1.08
2023-03-01T21:37:32.876Z,1.33
2023-03-01T21:42:36.695Z,1.15
2023-03-01T21:47:39.710Z,1.30
2023-03-01T21:52:41.880Z,1.45
2023-03-01T21:57:44.022Z,1.42
2023-03-01T22:02:46.225Z,0.90
2023-03-01T22:07:48.457Z,1.17
2023-03-01T22:12:50.584Z,1.50
2023-03-01T22:22:54.672Z,1.25
2023-03-01T22:27:56.940Z,1.02
2023-03-01T22:32:59.152Z,1.30
2023-03-01T22:38:01.561Z,1.15
2023-03-01T22:43:04.111Z,1.25
2023-03-01T22:48:06.701Z,1.30
2023-03-01T22:53:08.863Z,0.82
2023-03-01T22:58:11.454Z,1.25
2023-03-01T23:03:13.830Z,1.25
2023-03-01T23:08:16.055Z,1.42
2023-03-01T23:13:18.779Z,1.08
2023-03-01T23:18:20.923Z,0.90
2023-03-01T23:23:23.061Z,1.10
2023-03-01T23:28:26.234Z,1.10
2023-03-01T23:33:28.817Z,1.23
2023-03-01T23:38:31.002Z,1.40
2023-03-01T23:43:33.954Z,1.20
2023-03-01T23:48:36.137Z,1.20
2023-03-01T23:53:39.853Z,0.85
2023-03-01T23:58:44.332Z,0.88
